Terminal Aerodrome Forecast
Issued by NWS

Home | Current Version | Previous Version | Text Only | Print | Product List | Glossary On
Versions: 1 2 3 4 5 6 7 8 9 10 11 12 13 14 15 16 17 18 19 20 21 22 23 24 25 26 27
565
FTUS43 KABR 271457 AAC
TAFMBG
TAF AMD
KMBG 271457Z 2715/2812 14004KT 1/2SM FG VV002
     FM271520 15005KT 1 1/2SM BR BKN003
     FM271600 15005KT P6SM FEW150=

USA.gov is the U.S. government's official web portal to all federal, state and local government web resources and services.